createdAt,value
2023-05-07T00:00:22.524Z,101027.44
2023-05-07T00:00:45.114Z,101028.31
2023-05-07T00:01:06.962Z,101034.53
2023-05-07T00:01:28.522Z,101040.75
2023-05-07T00:01:50.176Z,101030.00
2023-05-07T00:02:11.775Z,101026.38
2023-05-07T00:02:34.498Z,101029.84
2023-05-07T00:02:56.247Z,101023.69
2023-05-07T00:03:17.996Z,101035.22
2023-05-07T00:03:40.222Z,101031.66
2023-05-07T00:04:03.293Z,101026.38
2023-05-07T00:04:25.057Z,101035.22
2023-05-07T00:04:46.782Z,101035.22
2023-05-07T00:05:09.801Z,101035.31
2023-05-07T00:05:32.410Z,101032.53
2023-05-07T00:05:55.248Z,101032.53
2023-05-07T00:06:16.927Z,101037.03
2023-05-07T00:06:38.528Z,101034.44
2023-05-07T00:07:00.331Z,101033.47
2023-05-07T00:07:22.932Z,101029.06
2023-05-07T00:07:44.559Z,101028.31
2023-05-07T00:08:06.331Z,101033.47
2023-05-07T00:08:28.225Z,101030.00
2023-05-07T00:08:51.226Z,101032.69
2023-05-07T00:09:13.789Z,101029.16
2023-05-07T00:09:35.464Z,101034.44
2023-05-07T00:09:57.747Z,101030.00
2023-05-07T00:10:20.073Z,101028.19
2023-05-07T00:10:41.913Z,101029.06
2023-05-07T00:11:04.941Z,101029.94
2023-05-07T00:11:26.935Z,101033.47
2023-05-07T00:11:48.621Z,101030.00
2023-05-07T00:12:10.463Z,101032.63
2023-05-07T00:12:34.686Z,101025.41
2023-05-07T00:12:56.455Z,101027.22
2023-05-07T00:13:18.229Z,101033.47
2023-05-07T00:13:39.998Z,101020.91
2023-05-07T00:14:02.587Z,101031.75
2023-05-07T00:14:24.197Z,101017.53
2023-05-07T00:14:46.451Z,101024.63
2023-05-07T00:15:09.358Z,101015.97
2023-05-07T00:15:31.392Z,101022.91
2023-05-07T00:15:54.040Z,101033.69
2023-05-07T00:16:15.877Z,101024.81
2023-05-07T00:16:37.572Z,101029.25
2023-05-07T00:16:59.382Z,101019.44
2023-05-07T00:17:22.018Z,101025.78
2023-05-07T00:17:43.719Z,101029.34
2023-05-07T00:18:05.536Z,101026.63
2023-05-07T00:18:27.151Z,101031.06
2023-05-07T00:18:48.919Z,101031.94
2023-05-07T00:19:11.518Z,101028.47
2023-05-07T00:19:33.106Z,101026.72
2023-05-07T00:19:54.738Z,101032.09
2023-05-07T00:20:16.488Z,101026.63
2023-05-07T00:20:38.121Z,101018.66
2023-05-07T00:21:00.686Z,101031.16
2023-05-07T00:21:22.549Z,101029.34
2023-05-07T00:21:44.194Z,101024.03
2023-05-07T00:22:05.813Z,101030.41
2023-05-07T00:22:27.482Z,101020.88
2023-05-07T00:22:50.100Z,101027.59
2023-05-07T00:23:11.723Z,101039.22
2023-05-07T00:23:33.273Z,101024.03
2023-05-07T00:23:56.361Z,101033.84
2023-05-07T00:24:17.963Z,101027.59
2023-05-07T00:24:40.631Z,101036.53
2023-05-07T00:25:02.310Z,101033.09
2023-05-07T00:25:24.005Z,101030.41
2023-05-07T00:25:45.627Z,101033.09
2023-05-07T00:26:07.224Z,101033.16
2023-05-07T00:26:29.772Z,101030.41
2023-05-07T00:26:51.934Z,101034.13
2023-05-07T00:27:13.555Z,101032.38
2023-05-07T00:27:35.290Z,101029.81
2023-05-07T00:27:58.471Z,101034.13
2023-05-07T00:28:20.056Z,101028.75
2023-05-07T00:28:42.105Z,101032.28
2023-05-07T00:29:03.825Z,101033.25
2023-05-07T00:29:25.449Z,101029.69
2023-05-07T00:29:48.037Z,101022.50
2023-05-07T00:30:10.886Z,101035.94
2023-05-07T00:30:32.838Z,101031.44
2023-05-07T00:30:54.594Z,101031.44
2023-05-07T00:31:16.316Z,101030.47
2023-05-07T00:31:39.185Z,101014.91
2023-05-07T00:32:01.028Z,101032.38
2023-05-07T00:32:22.845Z,101039.41
2023-05-07T00:33:06.248Z,101033.16
2023-05-07T00:33:28.997Z,101025.19
2023-05-07T00:33:50.716Z,101035.00
2023-05-07T00:34:12.399Z,101030.69
2023-05-07T00:34:33.965Z,101002.88
2023-05-07T00:34:56.564Z,101030.69
2023-05-07T00:35:19.810Z,101032.50
2023-05-07T00:35:43.135Z,101029.81
2023-05-07T00:36:05.403Z,101029.00
2023-05-07T00:36:27.292Z,101033.53
2023-05-07T00:36:49.115Z,101022.00
2023-05-07T00:37:12.931Z,101003.97
2023-05-07T00:37:34.545Z,101025.66
2023-05-07T00:37:56.413Z,101026.69
2023-05-07T00:38:18.065Z,101025.81
2023-05-07T00:38:39.645Z,101024.84
2023-05-07T00:39:04.522Z,101029.22
2023-05-07T00:39:26.361Z,101032.84
2023-05-07T00:39:48.025Z,101027.47
2023-05-07T00:40:10.690Z,101021.22
2023-05-07T00:40:33.657Z,101027.47
2023-05-07T00:40:55.258Z,101030.06
2023-05-07T00:41:16.953Z,101022.09
2023-05-07T00:41:38.880Z,101029.22
2023-05-07T00:42:03.627Z,101023.81
2023-05-07T00:42:25.204Z,101022.09
2023-05-07T00:42:47.923Z,101022.97
2023-05-07T00:43:09.890Z,101018.34
2023-05-07T00:43:33.030Z,101020.19
2023-05-07T00:43:54.665Z,101022.88
2023-05-07T00:44:16.411Z,101019.41
2023-05-07T00:44:38.083Z,101023.81
2023-05-07T00:44:59.744Z,101022.97
2023-05-07T00:45:22.641Z,101026.59
2023-05-07T00:45:44.422Z,101015.84
2023-05-07T00:46:06.284Z,101022.97
2023-05-07T00:46:28.091Z,101021.56
2023-05-07T00:46:50.854Z,101021.41
2023-05-07T00:47:13.885Z,101019.47
2023-05-07T00:47:35.813Z,101020.34
2023-05-07T00:47:59.727Z,101015.84
2023-05-07T00:48:21.495Z,101020.34
2023-05-07T00:48:44.106Z,101028.34
2023-05-07T00:49:06.147Z,101030.94
2023-05-07T00:49:36.884Z,101021.56
2023-05-07T00:49:59.616Z,101017.00
2023-05-07T00:50:21.342Z,101021.41
2023-05-07T00:50:44.127Z,101020.38
2023-05-07T00:51:06.097Z,101021.84
2023-05-07T00:51:28.336Z,101013.78
2023-05-07T00:51:51.400Z,101014.66
2023-05-07T00:52:17.510Z,101019.06
2023-05-07T00:52:39.570Z,101017.41
2023-05-07T00:53:01.560Z,101017.34
2023-05-07T00:53:23.438Z,101014.84
2023-05-07T00:53:47.118Z,101019.16
2023-05-07T00:54:10.142Z,101011.97
2023-05-07T00:54:32.132Z,101017.25
2023-05-07T00:54:54.435Z,101015.53
2023-05-07T00:55:16.444Z,101004.25
2023-05-07T00:55:39.596Z,101024.38
2023-05-07T00:56:01.810Z,101013.63
2023-05-07T00:56:24.660Z,101011.88
2023-05-07T00:56:46.495Z,101012.84
2023-05-07T00:57:09.915Z,101014.56
2023-05-07T00:57:35.566Z,101019.94
2023-05-07T00:57:57.443Z,101012.63
2023-05-07T00:58:19.135Z,101020.69
2023-05-07T00:58:41.793Z,101015.31
2023-05-07T00:59:04.087Z,101013.50
2023-05-07T00:59:26.910Z,101012.63
2023-05-07T00:59:48.749Z,101014.38
2023-05-07T01:00:13.618Z,101006.50
2023-05-07T01:00:36.817Z,101022.38
2023-05-07T01:01:00.183Z,101018.81
2023-05-07T01:01:22.134Z,101010.81
2023-05-07T01:01:44.067Z,101014.47
2023-05-07T01:02:05.751Z,101002.00
2023-05-07T01:02:27.538Z,101015.53
2023-05-07T01:02:50.281Z,101003.81
2023-05-07T01:03:12.640Z,101008.47
2023-05-07T01:03:34.665Z,101014.91
2023-05-07T01:03:57.256Z,101003.09
2023-05-07T01:04:19.752Z,101011.09
2023-05-07T01:04:42.764Z,101014.66
2023-05-07T01:05:08.355Z,101003.97
2023-05-07T01:05:31.459Z,100994.38
2023-05-07T01:05:55.004Z,101003.97
2023-05-07T01:06:18.518Z,101013.78
2023-05-07T01:06:41.678Z,101005.72
2023-05-07T01:07:04.489Z,101010.16
2023-05-07T01:07:26.367Z,101002.16
2023-05-07T01:07:50.442Z,101001.28
2023-05-07T01:08:14.038Z,101007.81
2023-05-07T01:08:36.611Z,101009.91
2023-05-07T01:08:58.490Z,101008.06
2023-05-07T01:09:22.931Z,101006.06
2023-05-07T01:09:44.782Z,101001.56
2023-05-07T01:10:08.413Z,101004.16
2023-05-07T01:10:31.567Z,101011.19
2023-05-07T01:10:55.064Z,101009.47
2023-05-07T01:11:17.570Z,101008.59
2023-05-07T01:11:40.242Z,101003.09
2023-05-07T01:12:02.042Z,100978.88
2023-05-07T01:12:26.418Z,101006.84
2023-05-07T01:12:50.597Z,101003.22
2023-05-07T01:13:13.989Z,101007.66
2023-05-07T01:13:38.397Z,101005.72
2023-05-07T01:14:01.081Z,100987.38
2023-05-07T01:14:23.181Z,101004.78
2023-05-07T01:14:44.980Z,101007.53
2023-05-07T01:15:09.806Z,101004.78
2023-05-07T01:15:31.454Z,101010.16
2023-05-07T01:15:53.217Z,100998.53
2023-05-07T01:16:14.832Z,101004.69
2023-05-07T01:16:38.893Z,101004.69
2023-05-07T01:17:00.950Z,101008.25
2023-05-07T01:17:22.823Z,101001.03
2023-05-07T01:17:45.039Z,101005.56
2023-05-07T01:18:20.287Z,101000.25
2023-05-07T01:18:42.076Z,101002.94
2023-05-07T01:19:04.333Z,101002.88
2023-05-07T01:19:25.978Z,101002.88
2023-05-07T01:19:48.849Z,101000.25
2023-05-07T01:20:13.195Z,101002.06
2023-05-07T01:20:35.493Z,100995.84
2023-05-07T01:20:59.305Z,101006.50
2023-05-07T01:21:27.368Z,100998.44
2023-05-07T01:21:53.304Z,100995.91
2023-05-07T01:22:21.919Z,100997.94
2023-05-07T01:22:46.911Z,100998.78
2023-05-07T01:23:12.931Z,100993.63
2023-05-07T01:23:35.687Z,100997.72
2023-05-07T01:23:58.571Z,100990.53
2023-05-07T01:24:20.834Z,101003.03
2023-05-07T01:24:42.919Z,100999.41
2023-05-07T01:25:06.721Z,100999.41
2023-05-07T01:25:29.319Z,101000.34
2023-05-07T01:25:54.115Z,100989.94
2023-05-07T01:26:17.217Z,100998.59
2023-05-07T01:26:41.466Z,101003.03
2023-05-07T01:27:05.337Z,101001.28
2023-05-07T01:27:28.816Z,100998.72
2023-05-07T01:27:50.790Z,100998.78
2023-05-07T01:28:12.448Z,101004.97
2023-05-07T01:28:37.905Z,100999.59
2023-05-07T01:28:59.504Z,100993.16
2023-05-07T01:29:21.123Z,100998.53
2023-05-07T01:29:43.129Z,100994.97
2023-05-07T01:30:05.397Z,100992.28
2023-05-07T01:30:29.384Z,100997.56
2023-05-07T01:30:54.543Z,100988.84
2023-05-07T01:31:16.877Z,100992.19
2023-05-07T01:31:41.239Z,100998.44
2023-05-07T01:32:05.490Z,100994.00
2023-05-07T01:32:32.940Z,100996.63
2023-05-07T01:32:59.967Z,100994.00
2023-05-07T01:33:22.764Z,100998.44
2023-05-07T01:33:47.873Z,100988.72
2023-05-07T01:34:11.566Z,100995.75
2023-05-07T01:34:35.688Z,100981.88
2023-05-07T01:34:59.672Z,100993.16
2023-05-07T01:35:26.991Z,100998.44
2023-05-07T01:35:51.238Z,101001.28
2023-05-07T01:36:14.279Z,100998.53
2023-05-07T01:36:38.302Z,100997.66
2023-05-07T01:37:01.405Z,100991.31
2023-05-07T01:37:23.936Z,100995.75
2023-05-07T01:37:48.017Z,100989.59
2023-05-07T01:38:10.088Z,100996.63
2023-05-07T01:38:32.035Z,101002.94
2023-05-07T01:38:55.040Z,100998.44
2023-05-07T01:39:18.069Z,100998.44
2023-05-07T01:39:40.878Z,100999.31
2023-05-07T01:40:03.495Z,100997.50
2023-05-07T01:40:27.827Z,100996.63
2023-05-07T01:40:49.764Z,100996.63
2023-05-07T01:41:12.538Z,100994.81
2023-05-07T01:41:34.645Z,100994.69
2023-05-07T01:41:57.312Z,100975.91
2023-05-07T01:42:21.281Z,100989.78
2023-05-07T01:42:44.236Z,100997.50
2023-05-07T01:43:06.724Z,100996.63
2023-05-07T01:43:30.755Z,100995.75
2023-05-07T01:43:54.647Z,100990.72
2023-05-07T01:44:17.674Z,100987.09
2023-05-07T01:44:39.316Z,100994.22
2023-05-07T01:45:00.952Z,100990.72
2023-05-07T01:45:23.917Z,100989.59
2023-05-07T01:45:46.277Z,101002.16
2023-05-07T01:46:10.831Z,100995.84
2023-05-07T01:46:33.648Z,100996.03
2023-05-07T01:46:57.030Z,100997.66
2023-05-07T01:47:19.081Z,100995.91
2023-05-07T01:47:41.280Z,100991.53
2023-05-07T01:48:03.969Z,100999.47
2023-05-07T01:48:27.728Z,100995.03
2023-05-07T01:48:50.851Z,100984.22
2023-05-07T01:49:12.552Z,100998.53
2023-05-07T01:49:34.468Z,100992.28
2023-05-07T01:49:57.682Z,100987.78
2023-05-07T01:50:20.620Z,100984.22
2023-05-07T01:50:43.798Z,100996.63
2023-05-07T01:51:06.018Z,100975.56
2023-05-07T01:51:28.875Z,100990.38
2023-05-07T01:51:51.892Z,100995.75
2023-05-07T01:52:14.255Z,100994.00
2023-05-07T01:52:36.306Z,100992.28
2023-05-07T01:52:59.393Z,100993.06
2023-05-07T01:53:22.138Z,100994.00
2023-05-07T01:53:44.879Z,100975.28
2023-05-07T01:54:07.550Z,100983.25
2023-05-07T01:54:29.196Z,100983.25
2023-05-07T01:54:52.961Z,100984.47
2023-05-07T01:55:15.069Z,100989.66
2023-05-07T01:55:37.698Z,100993.06
2023-05-07T01:55:59.409Z,100980.56
2023-05-07T01:56:21.993Z,100989.59
2023-05-07T01:56:45.139Z,100986.75
2023-05-07T01:57:06.812Z,100987.69
2023-05-07T01:57:28.941Z,100985.94
2023-05-07T01:57:50.630Z,100985.75
2023-05-07T01:58:12.429Z,100985.88
2023-05-07T01:58:35.158Z,100997.50
2023-05-07T01:58:57.602Z,100986.75
2023-05-07T01:59:19.303Z,100987.78
2023-05-07T01:59:40.921Z,100985.94
2023-05-07T02:00:03.779Z,100991.31
2023-05-07T02:00:38.259Z,100991.25
2023-05-07T02:01:00.380Z,100988.44
2023-05-07T02:01:22.747Z,100987.69
2023-05-07T02:01:44.905Z,100982.31
2023-05-07T02:02:08.250Z,100994.97
2023-05-07T02:02:32.718Z,100992.28
2023-05-07T02:02:54.842Z,100985.28
2023-05-07T02:03:25.541Z,100990.72
2023-05-07T02:03:55.942Z,100982.75
2023-05-07T02:04:20.846Z,100985.34
2023-05-07T02:04:42.474Z,100989.94
2023-05-07T02:05:05.222Z,100989.88
2023-05-07T02:05:27.897Z,100987.19
2023-05-07T02:05:55.006Z,100986.31
2023-05-07T02:06:27.487Z,100986.41
2023-05-07T02:06:54.602Z,100986.50
2023-05-07T02:07:16.713Z,100976.88
2023-05-07T02:07:38.413Z,100989.09
2023-05-07T02:08:01.392Z,100981.03
2023-05-07T02:08:25.713Z,100982.88
2023-05-07T02:08:47.756Z,100982.88
2023-05-07T02:09:10.373Z,100981.88
2023-05-07T02:09:33.506Z,100983.81
2023-05-07T02:09:56.808Z,100988.31
2023-05-07T02:10:18.450Z,100986.50
2023-05-07T02:10:40.431Z,100980.16
2023-05-07T02:11:02.886Z,100983.81
2023-05-07T02:11:26.676Z,100984.75
2023-05-07T02:11:48.290Z,100976.69
2023-05-07T02:12:09.872Z,100981.19
2023-05-07T02:12:31.677Z,100975.81
2023-05-07T02:12:53.317Z,100982.16
2023-05-07T02:13:16.127Z,100986.78
2023-05-07T02:13:37.908Z,100982.25
2023-05-07T02:13:59.529Z,100983.22
2023-05-07T02:14:21.562Z,100985.81
2023-05-07T02:14:44.526Z,100979.56
2023-05-07T02:15:07.868Z,100983.13
2023-05-07T02:15:30.728Z,100953.59
2023-05-07T02:15:54.710Z,100982.34
2023-05-07T02:16:18.477Z,100988.75
2023-05-07T02:16:40.208Z,100983.38
2023-05-07T02:17:02.597Z,100985.09
2023-05-07T02:17:24.401Z,100980.59
2023-05-07T02:18:01.100Z,100983.22
2023-05-07T02:18:22.803Z,100983.22
2023-05-07T02:18:44.449Z,100991.28
2023-05-07T02:19:06.345Z,100979.75
2023-05-07T02:19:27.970Z,100984.84
2023-05-07T02:19:50.529Z,100985.81
2023-05-07T02:20:14.286Z,100978.78
2023-05-07T02:20:37.210Z,100991.28
2023-05-07T02:20:59.045Z,100985.91
2023-05-07T02:21:21.789Z,100985.03
2023-05-07T02:21:43.395Z,100977.91
2023-05-07T02:22:04.993Z,100988.66
2023-05-07T02:22:26.673Z,100988.66
2023-05-07T02:22:48.285Z,100991.44
2023-05-07T02:23:12.297Z,100989.63
2023-05-07T02:23:34.121Z,100992.31
2023-05-07T02:23:56.272Z,100986.25
2023-05-07T02:24:18.922Z,100991.44
2023-05-07T02:24:40.607Z,100988.00
2023-05-07T02:25:02.159Z,100986.34
2023-05-07T02:25:24.015Z,100992.41
2023-05-07T02:25:46.366Z,100994.22
2023-05-07T02:26:09.151Z,100993.38
2023-05-07T02:26:31.649Z,100991.56
2023-05-07T02:26:53.337Z,100989.88
2023-05-07T02:27:15.217Z,100995.19
2023-05-07T02:27:36.957Z,100988.06
2023-05-07T02:27:59.721Z,100988.00
2023-05-07T02:28:36.198Z,100999.69
2023-05-07T02:28:59.383Z,100988.94
2023-05-07T02:29:22.317Z,100991.63
2023-05-07T02:29:44.360Z,100997.78
2023-05-07T02:30:08.705Z,100988.00
2023-05-07T02:30:30.400Z,100989.00
2023-05-07T02:30:54.853Z,100977.19
2023-05-07T02:31:16.678Z,100993.53
2023-05-07T02:31:38.394Z,100993.53
2023-05-07T02:32:00.085Z,100999.00
2023-05-07T02:32:24.124Z,100995.53
2023-05-07T02:32:46.014Z,100991.09
2023-05-07T02:33:09.294Z,100991.97
2023-05-07T02:33:31.668Z,100993.72
2023-05-07T02:33:54.681Z,100993.78
2023-05-07T02:34:16.371Z,100998.22
2023-05-07T02:34:38.069Z,100993.91
2023-05-07T02:34:59.654Z,100996.47
2023-05-07T02:35:22.217Z,100997.34
2023-05-07T02:35:43.938Z,100992.84
2023-05-07T02:36:08.721Z,100989.56
2023-05-07T02:36:33.200Z,100998.22
2023-05-07T02:37:00.594Z,101002.72
2023-05-07T02:37:22.790Z,100997.34
2023-05-07T02:37:44.801Z,100995.63
2023-05-07T02:38:07.406Z,100995.63
2023-05-07T02:38:31.399Z,100995.72
2023-05-07T02:38:53.170Z,100994.06
2023-05-07T02:39:16.528Z,100981.69
2023-05-07T02:39:38.219Z,100994.84
2023-05-07T02:40:00.836Z,100996.66
2023-05-07T02:40:22.654Z,100996.66
2023-05-07T02:40:44.340Z,101001.16
2023-05-07T02:41:06.051Z,100991.38
2023-05-07T02:41:29.270Z,101000.41
2023-05-07T02:41:50.946Z,101000.41
2023-05-07T02:42:13.088Z,101003.84
2023-05-07T02:42:34.717Z,100993.97
2023-05-07T02:42:57.323Z,101001.16
2023-05-07T02:43:19.009Z,100996.66
2023-05-07T02:43:43.224Z,100984.63
2023-05-07T02:44:07.954Z,101001.97
2023-05-07T02:44:32.341Z,101000.22
2023-05-07T02:44:54.238Z,101001.16
2023-05-07T02:45:16.134Z,101009.22
2023-05-07T02:45:39.486Z,101004.72
2023-05-07T02:46:04.147Z,101006.47
2023-05-07T02:46:26.038Z,101003.78
2023-05-07T02:46:54.795Z,101001.97
2023-05-07T02:47:18.174Z,101010.91
2023-05-07T02:47:40.791Z,101002.84
2023-05-07T02:48:02.542Z,101007.34
2023-05-07T02:48:24.238Z,101004.66
2023-05-07T02:48:46.928Z,101004.66
2023-05-07T02:49:08.584Z,101002.91
2023-05-07T02:49:30.209Z,101003.69
2023-05-07T02:49:51.777Z,100997.81
2023-05-07T02:50:13.564Z,101010.03
2023-05-07T02:50:36.404Z,101004.66
2023-05-07T02:50:58.188Z,101003.69
2023-05-07T02:51:24.040Z,101009.91
2023-05-07T02:51:47.440Z,101001.00
2023-05-07T02:52:15.975Z,101005.41
2023-05-07T02:52:37.857Z,100998.31
2023-05-07T02:53:00.448Z,101001.16
2023-05-07T02:53:22.050Z,101002.91
2023-05-07T02:53:45.987Z,101005.69
2023-05-07T02:54:08.024Z,100994.94
2023-05-07T02:54:29.658Z,101006.53
2023-05-07T02:54:51.402Z,100999.34
2023-05-07T02:55:14.100Z,101011.16
2023-05-07T02:55:35.784Z,100997.72
2023-05-07T02:55:58.939Z,100973.41
2023-05-07T02:56:20.710Z,100997.63
2023-05-07T02:56:44.338Z,101005.78
2023-05-07T02:57:05.965Z,101000.41
2023-05-07T02:57:27.640Z,100983.09
2023-05-07T02:57:49.684Z,101003.94
2023-05-07T02:58:11.468Z,101006.53
2023-05-07T02:58:36.020Z,101003.09
2023-05-07T02:58:59.495Z,101007.50
2023-05-07T02:59:25.145Z,101002.22
2023-05-07T02:59:46.738Z,101008.47
2023-05-07T03:00:15.491Z,100999.63
2023-05-07T03:00:43.660Z,100999.63
2023-05-07T03:01:22.831Z,101005.06
2023-05-07T03:01:58.577Z,101009.41
2023-05-07T03:02:21.167Z,101005.19
2023-05-07T03:02:43.131Z,101003.19
2023-05-07T03:03:05.091Z,100997.13
2023-05-07T03:03:26.734Z,101006.72
2023-05-07T03:03:49.515Z,101008.63
2023-05-07T03:04:11.671Z,101002.56
2023-05-07T03:04:33.612Z,100999.88
2023-05-07T03:04:55.288Z,101005.34
2023-05-07T03:05:17.912Z,100999.81
2023-05-07T03:05:39.489Z,101000.03
2023-05-07T03:06:01.151Z,101000.84
2023-05-07T03:06:22.868Z,100999.97
2023-05-07T03:06:45.531Z,100999.09
2023-05-07T03:07:07.172Z,100995.47
2023-05-07T03:07:28.829Z,101000.75
2023-05-07T03:07:50.731Z,100997.19
2023-05-07T03:08:12.897Z,100997.00
2023-05-07T03:08:35.719Z,100998.94
2023-05-07T03:08:58.700Z,100996.34
2023-05-07T03:09:20.397Z,100998.06
2023-05-07T03:09:42.014Z,100995.38
2023-05-07T03:10:05.185Z,100997.88
2023-05-07T03:10:26.794Z,100998.75
2023-05-07T03:10:48.468Z,101000.50
2023-05-07T03:11:10.349Z,101004.91
2023-05-07T03:11:33.151Z,101000.41
2023-05-07T03:11:54.873Z,101007.59
2023-05-07T03:12:16.665Z,101002.22
2023-05-07T03:12:38.871Z,100999.69
2023-05-07T03:13:00.712Z,101006.72
2023-05-07T03:13:23.522Z,100998.69
2023-05-07T03:13:45.288Z,101002.31
2023-05-07T03:14:06.934Z,101003.09
2023-05-07T03:14:28.512Z,100999.44
2023-05-07T03:14:50.188Z,100996.84
2023-05-07T03:15:13.686Z,101002.13
2023-05-07T03:15:35.503Z,100990.00
2023-05-07T03:15:57.290Z,100992.69
2023-05-07T03:16:18.944Z,100997.13
2023-05-07T03:16:41.141Z,100997.19
2023-05-07T03:17:03.769Z,100993.56
2023-05-07T03:17:25.582Z,100998.94
2023-05-07T03:17:47.363Z,100997.81
2023-05-07T03:18:09.238Z,100999.81
2023-05-07T03:18:31.892Z,100994.31
2023-05-07T03:18:53.597Z,100996.94
2023-05-07T03:19:15.406Z,101001.38
2023-05-07T03:19:37.137Z,101001.38
2023-05-07T03:19:58.935Z,100999.53
2023-05-07T03:20:20.769Z,100989.06
2023-05-07T03:20:43.403Z,100995.88
2023-05-07T03:21:05.157Z,100997.63
2023-05-07T03:21:27.443Z,100996.00
2023-05-07T03:21:49.458Z,100995.88
2023-05-07T03:22:12.120Z,100996.75
2023-05-07T03:22:33.866Z,100997.63
2023-05-07T03:22:55.553Z,100998.56
2023-05-07T03:23:17.211Z,100987.81
2023-05-07T03:23:40.363Z,100984.28
2023-05-07T03:24:05.435Z,100990.63
2023-05-07T03:24:27.055Z,100989.06
2023-05-07T03:24:48.610Z,100986.38
2023-05-07T03:25:11.055Z,100987.31
2023-05-07T03:25:33.754Z,100982.81
2023-05-07T03:25:55.554Z,100983.78
2023-05-07T03:26:17.233Z,100985.50
2023-05-07T03:26:40.026Z,100981.00
2023-05-07T03:27:02.912Z,100992.50
2023-05-07T03:27:24.819Z,100981.09
2023-05-07T03:27:48.214Z,100990.09
2023-05-07T03:28:10.999Z,100985.59
2023-05-07T03:28:38.588Z,100986.47
2023-05-07T03:29:03.789Z,100985.59
2023-05-07T03:29:25.572Z,100982.97
2023-05-07T03:29:48.241Z,100978.47
2023-05-07T03:30:11.346Z,100981.25
2023-05-07T03:30:33.120Z,100983.84
2023-05-07T03:30:54.992Z,100988.34
2023-05-07T03:31:17.074Z,100982.09
2023-05-07T03:31:39.901Z,100977.72
2023-05-07T03:32:01.959Z,100985.78
2023-05-07T03:32:23.851Z,100983.84
2023-05-07T03:32:46.097Z,100978.56
2023-05-07T03:33:08.811Z,100982.09
2023-05-07T03:33:31.363Z,100979.34
2023-05-07T03:33:54.116Z,100977.59
2023-05-07T03:34:17.918Z,100983.84
2023-05-07T03:34:40.734Z,100979.53
2023-05-07T03:35:03.323Z,100981.41
2023-05-07T03:35:25.160Z,100975.03
2023-05-07T03:35:47.005Z,100979.41
2023-05-07T03:36:14.689Z,100976.75
2023-05-07T03:36:36.405Z,100983.94
2023-05-07T03:36:58.930Z,100976.75
2023-05-07T03:37:20.643Z,100980.41
2023-05-07T03:37:43.634Z,100963.81
2023-05-07T03:38:07.547Z,100942.94
2023-05-07T03:38:31.127Z,100970.59
2023-05-07T03:38:53.270Z,100976.84
2023-05-07T03:39:19.443Z,100972.47
2023-05-07T03:39:42.056Z,100976.88
2023-05-07T03:40:05.213Z,100977.78
2023-05-07T03:40:32.835Z,100984.53
2023-05-07T03:40:55.535Z,100977.22
2023-05-07T03:41:17.310Z,100978.09
2023-05-07T03:41:40.675Z,100979.75
2023-05-07T03:42:02.350Z,100976.22
2023-05-07T03:42:25.809Z,100975.16
2023-05-07T03:42:47.961Z,100984.16
2023-05-07T03:43:11.510Z,100980.63
2023-05-07T03:43:36.208Z,100979.66
2023-05-07T03:44:03.465Z,100977.84
2023-05-07T03:44:25.444Z,100983.22
2023-05-07T03:44:48.032Z,100983.31
2023-05-07T03:45:10.138Z,100974.22
2023-05-07T03:45:34.358Z,100975.34
2023-05-07T03:46:04.361Z,100971.53
2023-05-07T03:46:27.149Z,100984.91
2023-05-07T03:46:48.989Z,100981.34
2023-05-07T03:47:12.217Z,100976.88
2023-05-07T03:47:34.501Z,100977.78
2023-05-07T03:47:56.492Z,100975.09
2023-05-07T03:48:18.135Z,100977.09
2023-05-07T03:48:40.632Z,100975.34
2023-05-07T03:49:03.478Z,100966.84
2023-05-07T03:49:25.764Z,100969.19
2023-05-07T03:49:47.432Z,100969.19
2023-05-07T03:50:11.776Z,100981.47
2023-05-07T03:50:34.685Z,100978.03
2023-05-07T03:50:57.291Z,100983.31
2023-05-07T03:51:20.431Z,100971.97
2023-05-07T03:51:42.200Z,100981.59
2023-05-07T03:52:04.950Z,100983.41
2023-05-07T03:52:27.454Z,100978.97
2023-05-07T03:52:52.160Z,100980.88
2023-05-07T03:53:16.614Z,100983.47
2023-05-07T03:53:39.210Z,100980.88
2023-05-07T03:54:01.169Z,100978.03
2023-05-07T03:54:26.097Z,100974.53
2023-05-07T03:54:47.795Z,100978.09
2023-05-07T03:55:12.072Z,100979.84
2023-05-07T03:55:36.578Z,100984.34
2023-05-07T03:55:58.208Z,100987.03
2023-05-07T03:56:19.874Z,100988.78
2023-05-07T03:56:42.087Z,100984.34
2023-05-07T03:57:04.831Z,100987.81
2023-05-07T03:57:26.470Z,100984.28
2023-05-07T03:57:48.476Z,100988.78
2023-05-07T03:58:10.312Z,100987.81
2023-05-07T03:58:32.828Z,100987.81
2023-05-07T03:59:00.007Z,100987.81
2023-05-07T03:59:23.093Z,100994.06
2023-05-07T03:59:44.807Z,100987.81
2023-05-07T04:00:07.717Z,100984.16
2023-05-07T04:00:43.388Z,100987.81
2023-05-07T04:01:14.215Z,100958.44
2023-05-07T04:01:36.194Z,100990.50
2023-05-07T04:01:58.113Z,100988.69
2023-05-07T04:02:22.666Z,100991.28
2023-05-07T04:02:44.440Z,100990.41
2023-05-07T04:03:06.207Z,100985.41
2023-05-07T04:03:28.087Z,100994.91
2023-05-07T04:03:54.123Z,100993.19
2023-05-07T04:04:16.462Z,101003.94
2023-05-07T04:04:38.184Z,100994.13
2023-05-07T04:04:59.895Z,100993.19
2023-05-07T04:05:22.565Z,101001.25
2023-05-07T04:05:48.042Z,100997.69
2023-05-07T04:06:09.898Z,100994.13
2023-05-07T04:06:32.149Z,101003.06
2023-05-07T04:06:55.187Z,100997.69
2023-05-07T04:07:17.599Z,100996.84
2023-05-07T04:07:43.437Z,101000.47
2023-05-07T04:08:06.975Z,100994.22
2023-05-07T04:08:36.008Z,100996.84
2023-05-07T04:08:59.192Z,101000.47
2023-05-07T04:09:20.927Z,101004.81
2023-05-07T04:09:44.762Z,100995.88
2023-05-07T04:10:07.195Z,100999.50
2023-05-07T04:10:31.319Z,101002.28
2023-05-07T04:10:58.466Z,100998.66
2023-05-07T04:11:22.681Z,100995.97
2023-05-07T04:11:44.547Z,101003.16
2023-05-07T04:12:08.023Z,100992.41
2023-05-07T04:12:30.308Z,101003.16
2023-05-07T04:12:52.232Z,101002.19
2023-05-07T04:13:17.016Z,101001.34
2023-05-07T04:13:40.008Z,101004.03
2023-05-07T04:14:03.459Z,101003.94
2023-05-07T04:14:25.023Z,101004.88
2023-05-07T04:14:47.046Z,101009.31
2023-05-07T04:15:09.624Z,101016.50
2023-05-07T04:15:32.360Z,101010.25
2023-05-07T04:15:54.925Z,101014.84
2023-05-07T04:16:16.637Z,101012.16
2023-05-07T04:16:38.289Z,101022.81
2023-05-07T04:17:01.421Z,101016.56
2023-05-07T04:17:23.987Z,101010.25
2023-05-07T04:17:46.166Z,101013.03
2023-05-07T04:18:09.848Z,101007.13
2023-05-07T04:18:33.694Z,101010.34
2023-05-07T04:18:55.458Z,101020.06
2023-05-07T04:19:17.263Z,101015.63
2023-05-07T04:19:40.110Z,101008.44
2023-05-07T04:20:03.407Z,101016.50
2023-05-07T04:20:25.299Z,101011.13
2023-05-07T04:20:53.584Z,101019.19
2023-05-07T04:21:16.037Z,101009.31
2023-05-07T04:21:38.835Z,101005.75
2023-05-07T04:22:00.680Z,101020.06